sensor_id;sensor_type;location;lat;lon;timestamp;temperature;humidity
7576;DHT22;3829;50.798;4.358;2023-02-28T00:01:05;1.60;99.90
7576;DHT22;3829;50.798;4.358;2023-02-28T00:03:31;1.50;99.90
7576;DHT22;3829;50.798;4.358;2023-02-28T00:06:01;1.50;99.90
7576;DHT22;3829;50.798;4.358;2023-02-28T00:08:27;1.50;99.90
7576;DHT22;3829;50.798;4.358;2023-02-28T00:10:53;1.50;99.90
7576;DHT22;3829;50.798;4.358;2023-02-28T00:13:19;1.40;99.90
7576;DHT22;3829;50.798;4.358;2023-02-28T00:15:44;1.50;99.90
7576;DHT22;3829;50.798;4.358;2023-02-28T00:18:11;1.40;99.90
7576;DHT22;3829;50.798;4.358;2023-02-28T00:20:37;1.40;99.90
7576;DHT22;3829;50.798;4.358;2023-02-28T00:23:02;1.40;99.90
7576;DHT22;3829;50.798;4.358;2023-02-28T00:25:28;1.40;99.90
7576;DHT22;3829;50.798;4.358;2023-02-28T00:27:54;1.50;99.90
7576;DHT22;3829;50.798;4.358;2023-02-28T00:30:21;1.20;99.90
7576;DHT22;3829;50.798;4.358;2023-02-28T00:32:48;1.20;99.90
7576;DHT22;3829;50.798;4.358;2023-02-28T00:35:13;1.30;99.90
7576;DHT22;3829;50.798;4.358;2023-02-28T00:37:39;1.30;99.90
7576;DHT22;3829;50.798;4.358;2023-02-28T00:40:05;1.30;99.90
7576;DHT22;3829;50.798;4.358;2023-02-28T00:42:32;1.30;99.90
7576;DHT22;3829;50.798;4.358;2023-02-28T00:44:58;1.30;99.90
7576;DHT22;3829;50.798;4.358;2023-02-28T00:47:24;1.30;99.90
7576;DHT22;3829;50.798;4.358;2023-02-28T00:49:49;1.20;99.90
7576;DHT22;3829;50.798;4.358;2023-02-28T00:52:15;1.20;99.90
7576;DHT22;3829;50.798;4.358;2023-02-28T00:54:40;1.20;99.90
7576;DHT22;3829;50.798;4.358;2023-02-28T00:57:06;1.10;99.90
7576;DHT22;3829;50.798;4.358;2023-02-28T00:59:31;1.10;99.90
7576;DHT22;3829;50.798;4.358;2023-02-28T01:01:57;1.00;99.90
7576;DHT22;3829;50.798;4.358;2023-02-28T01:04:23;1.00;99.90
7576;DHT22;3829;50.798;4.358;2023-02-28T01:06:48;1.00;99.90
7576;DHT22;3829;50.798;4.358;2023-02-28T01:09:14;1.00;99.90
7576;DHT22;3829;50.798;4.358;2023-02-28T01:11:41;0.90;99.90
7576;DHT22;3829;50.798;4.358;2023-02-28T01:14:12;0.90;99.90
7576;DHT22;3829;50.798;4.358;2023-02-28T01:16:38;1.00;99.90
7576;DHT22;3829;50.798;4.358;2023-02-28T01:19:04;0.90;99.90
7576;DHT22;3829;50.798;4.358;2023-02-28T01:21:29;0.90;99.90
7576;DHT22;3829;50.798;4.358;2023-02-28T01:23:56;0.90;99.90
7576;DHT22;3829;50.798;4.358;2023-02-28T01:26:23;0.80;99.90
7576;DHT22;3829;50.798;4.358;2023-02-28T01:28:50;0.90;99.90
7576;DHT22;3829;50.798;4.358;2023-02-28T01:31:17;0.80;99.90
7576;DHT22;3829;50.798;4.358;2023-02-28T01:33:44;0.80;99.90
7576;DHT22;3829;50.798;4.358;2023-02-28T01:36:19;0.80;99.90
7576;DHT22;3829;50.798;4.358;2023-02-28T01:38:46;0.80;99.90
7576;DHT22;3829;50.798;4.358;2023-02-28T01:41:21;0.70;99.90
7576;DHT22;3829;50.798;4.358;2023-02-28T01:46:13;0.80;99.90
7576;DHT22;3829;50.798;4.358;2023-02-28T01:51:16;0.80;99.90
7576;DHT22;3829;50.798;4.358;2023-02-28T01:53:46;0.60;99.90
7576;DHT22;3829;50.798;4.358;2023-02-28T01:56:15;0.60;99.90
7576;DHT22;3829;50.798;4.358;2023-02-28T01:58:47;0.70;99.90
7576;DHT22;3829;50.798;4.358;2023-02-28T02:01:13;0.70;99.90
7576;DHT22;3829;50.798;4.358;2023-02-28T02:03:50;0.60;99.90
7576;DHT22;3829;50.798;4.358;2023-02-28T02:06:22;0.70;99.90
7576;DHT22;3829;50.798;4.358;2023-02-28T02:08:47;0.70;99.90
7576;DHT22;3829;50.798;4.358;2023-02-28T02:11:13;0.70;99.90
7576;DHT22;3829;50.798;4.358;2023-02-28T02:36:15;0.50;99.90
7576;DHT22;3829;50.798;4.358;2023-02-28T02:39:38;0.50;99.90
7576;DHT22;3829;50.798;4.358;2023-02-28T02:41:53;0.40;99.90
7576;DHT22;3829;50.798;4.358;2023-02-28T02:44:23;0.30;99.90
7576;DHT22;3829;50.798;4.358;2023-02-28T02:46:52;0.40;99.90
7576;DHT22;3829;50.798;4.358;2023-02-28T02:49:23;0.30;99.90
7576;DHT22;3829;50.798;4.358;2023-02-28T02:51:52;0.30;99.90
7576;DHT22;3829;50.798;4.358;2023-02-28T02:54:30;0.30;99.90
7576;DHT22;3829;50.798;4.358;2023-02-28T02:57:00;0.30;99.90
7576;DHT22;3829;50.798;4.358;2023-02-28T02:59:28;0.30;99.90
7576;DHT22;3829;50.798;4.358;2023-02-28T03:02:00;0.30;99.90
7576;DHT22;3829;50.798;4.358;2023-02-28T03:04:32;0.20;99.90
7576;DHT22;3829;50.798;4.358;2023-02-28T03:06:58;0.20;99.90
7576;DHT22;3829;50.798;4.358;2023-02-28T03:09:24;0.20;99.90
7576;DHT22;3829;50.798;4.358;2023-02-28T03:11:55;0.20;99.90
7576;DHT22;3829;50.798;4.358;2023-02-28T03:17:09;0.20;99.90
7576;DHT22;3829;50.798;4.358;2023-02-28T03:25:04;0.10;99.90
7576;DHT22;3829;50.798;4.358;2023-02-28T03:27:41;0.20;99.90
7576;DHT22;3829;50.798;4.358;2023-02-28T03:30:24;0.20;99.90
7576;DHT22;3829;50.798;4.358;2023-02-28T03:32:57;0.10;99.90
7576;DHT22;3829;50.798;4.358;2023-02-28T03:35:28;0.10;99.90
7576;DHT22;3829;50.798;4.358;2023-02-28T03:38:03;0.00;99.90
7576;DHT22;3829;50.798;4.358;2023-02-28T03:40:33;0.10;99.90
7576;DHT22;3829;50.798;4.358;2023-02-28T03:43:07;0.10;99.90
7576;DHT22;3829;50.798;4.358;2023-02-28T03:45:36;0.00;99.90
7576;DHT22;3829;50.798;4.358;2023-02-28T03:48:17;0.00;99.90
7576;DHT22;3829;50.798;4.358;2023-02-28T03:50:47;0.00;99.90
7576;DHT22;3829;50.798;4.358;2023-02-28T03:53:35;0.00;99.90
7576;DHT22;3829;50.798;4.358;2023-02-28T03:56:11;-0.10;99.90
7576;DHT22;3829;50.798;4.358;2023-02-28T03:59:07;-0.10;99.90
7576;DHT22;3829;50.798;4.358;2023-02-28T04:01:39;-0.10;99.90
7576;DHT22;3829;50.798;4.358;2023-02-28T04:04:07;-0.10;99.90
7576;DHT22;3829;50.798;4.358;2023-02-28T04:06:33;-0.10;99.90
7576;DHT22;3829;50.798;4.358;2023-02-28T04:08:59;-0.10;99.90
7576;DHT22;3829;50.798;4.358;2023-02-28T04:11:38;-0.20;99.90
7576;DHT22;3829;50.798;4.358;2023-02-28T04:14:05;-0.10;99.90
7576;DHT22;3829;50.798;4.358;2023-02-28T04:16:32;-0.10;99.90
7576;DHT22;3829;50.798;4.358;2023-02-28T04:18:58;-0.10;99.90
7576;DHT22;3829;50.798;4.358;2023-02-28T04:21:36;-0.10;99.90
7576;DHT22;3829;50.798;4.358;2023-02-28T04:24:07;-0.10;99.90
7576;DHT22;3829;50.798;4.358;2023-02-28T04:26:35;-0.10;99.90
7576;DHT22;3829;50.798;4.358;2023-02-28T04:29:05;-0.10;99.90
7576;DHT22;3829;50.798;4.358;2023-02-28T04:31:31;-0.10;99.90
7576;DHT22;3829;50.798;4.358;2023-02-28T04:33:57;-0.10;99.90
7576;DHT22;3829;50.798;4.358;2023-02-28T04:36:23;-0.10;99.90
7576;DHT22;3829;50.798;4.358;2023-02-28T04:38:49;-0.10;99.90
7576;DHT22;3829;50.798;4.358;2023-02-28T04:41:15;-0.10;99.90
7576;DHT22;3829;50.798;4.358;2023-02-28T04:43:40;-0.10;99.90
7576;DHT22;3829;50.798;4.358;2023-02-28T04:46:06;-0.10;99.90
7576;DHT22;3829;50.798;4.358;2023-02-28T04:48:34;-0.10;99.90
7576;DHT22;3829;50.798;4.358;2023-02-28T04:51:11;-0.10;99.90
7576;DHT22;3829;50.798;4.358;2023-02-28T04:53:38;-0.10;99.90
7576;DHT22;3829;50.798;4.358;2023-02-28T04:56:05;-0.10;99.90
7576;DHT22;3829;50.798;4.358;2023-02-28T04:58:32;-0.20;99.90
7576;DHT22;3829;50.798;4.358;2023-02-28T05:01:23;-0.10;99.90
7576;DHT22;3829;50.798;4.358;2023-02-28T05:03:49;-0.20;99.90
7576;DHT22;3829;50.798;4.358;2023-02-28T05:06:15;-0.10;99.90
7576;DHT22;3829;50.798;4.358;2023-02-28T05:08:41;-0.10;99.90
7576;DHT22;3829;50.798;4.358;2023-02-28T05:11:20;-0.10;99.90
7576;DHT22;3829;50.798;4.358;2023-02-28T05:13:47;0.00;99.90
7576;DHT22;3829;50.798;4.358;2023-02-28T05:16:14;0.00;99.90
7576;DHT22;3829;50.798;4.358;2023-02-28T05:18:40;0.20;99.90
7576;DHT22;3829;50.798;4.358;2023-02-28T05:21:05;0.30;99.90
7576;DHT22;3829;50.798;4.358;2023-02-28T05:23:31;0.30;99.90
7576;DHT22;3829;50.798;4.358;2023-02-28T05:25:57;0.30;99.90
7576;DHT22;3829;50.798;4.358;2023-02-28T05:28:23;0.40;99.90
7576;DHT22;3829;50.798;4.358;2023-02-28T05:30:49;0.50;99.90
7576;DHT22;3829;50.798;4.358;2023-02-28T05:33:14;0.50;99.90
7576;DHT22;3829;50.798;4.358;2023-02-28T05:35:40;0.60;99.90
7576;DHT22;3829;50.798;4.358;2023-02-28T05:38:06;0.50;99.90
7576;DHT22;3829;50.798;4.358;2023-02-28T05:40:32;0.60;99.90
7576;DHT22;3829;50.798;4.358;2023-02-28T05:42:57;0.60;99.90
7576;DHT22;3829;50.798;4.358;2023-02-28T05:45:23;0.60;99.90
7576;DHT22;3829;50.798;4.358;2023-02-28T05:47:48;0.50;99.90
7576;DHT22;3829;50.798;4.358;2023-02-28T05:50:14;0.60;99.90
7576;DHT22;3829;50.798;4.358;2023-02-28T05:52:40;0.60;99.90
7576;DHT22;3829;50.798;4.358;2023-02-28T05:55:06;0.60;99.90
7576;DHT22;3829;50.798;4.358;2023-02-28T05:57:32;0.70;99.90
7576;DHT22;3829;50.798;4.358;2023-02-28T05:59:57;0.80;99.90
7576;DHT22;3829;50.798;4.358;2023-02-28T06:02:23;0.80;99.90
7576;DHT22;3829;50.798;4.358;2023-02-28T06:04:49;0.80;99.90
7576;DHT22;3829;50.798;4.358;2023-02-28T06:07:15;0.80;99.90
7576;DHT22;3829;50.798;4.358;2023-02-28T06:09:42;0.90;99.90
7576;DHT22;3829;50.798;4.358;2023-02-28T06:12:08;0.90;99.90
7576;DHT22;3829;50.798;4.358;2023-02-28T06:14:35;1.00;99.90
7576;DHT22;3829;50.798;4.358;2023-02-28T06:17:02;1.00;99.90
7576;DHT22;3829;50.798;4.358;2023-02-28T06:19:28;1.00;99.90
7576;DHT22;3829;50.798;4.358;2023-02-28T06:21:56;1.10;99.90
7576;DHT22;3829;50.798;4.358;2023-02-28T06:24:23;1.10;99.90
7576;DHT22;3829;50.798;4.358;2023-02-28T06:26:49;1.20;99.90
7576;DHT22;3829;50.798;4.358;2023-02-28T06:29:15;1.10;99.90
7576;DHT22;3829;50.798;4.358;2023-02-28T06:31:42;1.00;99.90
7576;DHT22;3829;50.798;4.358;2023-02-28T06:34:09;1.00;99.90
7576;DHT22;3829;50.798;4.358;2023-02-28T06:36:40;1.10;99.90
7576;DHT22;3829;50.798;4.358;2023-02-28T06:39:07;1.10;99.90
7576;DHT22;3829;50.798;4.358;2023-02-28T06:41:33;1.10;99.90
7576;DHT22;3829;50.798;4.358;2023-02-28T06:44:13;1.10;99.90
7576;DHT22;3829;50.798;4.358;2023-02-28T06:46:41;1.20;99.90
7576;DHT22;3829;50.798;4.358;2023-02-28T06:49:07;1.30;99.90
7576;DHT22;3829;50.798;4.358;2023-02-28T06:51:39;1.20;99.90
7576;DHT22;3829;50.798;4.358;2023-02-28T06:54:05;1.30;99.90
7576;DHT22;3829;50.798;4.358;2023-02-28T06:56:34;1.30;99.90
7576;DHT22;3829;50.798;4.358;2023-02-28T06:59:00;1.50;99.90
7576;DHT22;3829;50.798;4.358;2023-02-28T07:01:26;1.50;99.90
7576;DHT22;3829;50.798;4.358;2023-02-28T07:03:53;1.60;99.90
7576;DHT22;3829;50.798;4.358;2023-02-28T07:06:22;1.60;99.90
7576;DHT22;3829;50.798;4.358;2023-02-28T07:08:49;1.50;99.90
7576;DHT22;3829;50.798;4.358;2023-02-28T07:11:15;1.60;99.90
7576;DHT22;3829;50.798;4.358;2023-02-28T07:13:41;1.70;99.90
7576;DHT22;3829;50.798;4.358;2023-02-28T07:16:09;1.70;99.90
7576;DHT22;3829;50.798;4.358;2023-02-28T07:18:36;1.70;99.90
7576;DHT22;3829;50.798;4.358;2023-02-28T07:21:05;1.70;99.90
7576;DHT22;3829;50.798;4.358;2023-02-28T07:23:30;1.80;99.90
7576;DHT22;3829;50.798;4.358;2023-02-28T07:25:57;1.90;99.90
7576;DHT22;3829;50.798;4.358;2023-02-28T07:28:22;2.00;99.90
7576;DHT22;3829;50.798;4.358;2023-02-28T07:30:48;2.20;99.90
7576;DHT22;3829;50.798;4.358;2023-02-28T07:33:14;2.20;99.90
7576;DHT22;3829;50.798;4.358;2023-02-28T07:35:40;2.30;99.90
7576;DHT22;3829;50.798;4.358;2023-02-28T07:38:06;2.30;99.90
7576;DHT22;3829;50.798;4.358;2023-02-28T07:40:33;2.30;99.90
7576;DHT22;3829;50.798;4.358;2023-02-28T07:43:03;2.30;99.90
7576;DHT22;3829;50.798;4.358;2023-02-28T07:45:29;2.30;99.90
7576;DHT22;3829;50.798;4.358;2023-02-28T07:47:55;2.30;99.90
7576;DHT22;3829;50.798;4.358;2023-02-28T07:50:21;2.40;99.90
7576;DHT22;3829;50.798;4.358;2023-02-28T07:52:47;2.30;99.90
7576;DHT22;3829;50.798;4.358;2023-02-28T07:55:13;2.40;99.90
7576;DHT22;3829;50.798;4.358;2023-02-28T07:57:40;2.40;99.90
7576;DHT22;3829;50.798;4.358;2023-02-28T08:00:08;2.40;99.90
7576;DHT22;3829;50.798;4.358;2023-02-28T08:02:35;2.50;99.90
7576;DHT22;3829;50.798;4.358;2023-02-28T08:05:01;2.60;99.90
7576;DHT22;3829;50.798;4.358;2023-02-28T08:07:27;2.50;99.90
7576;DHT22;3829;50.798;4.358;2023-02-28T08:09:52;2.40;99.90
7576;DHT22;3829;50.798;4.358;2023-02-28T08:12:18;2.40;99.90
7576;DHT22;3829;50.798;4.358;2023-02-28T08:14:44;2.40;99.90
7576;DHT22;3829;50.798;4.358;2023-02-28T08:17:10;2.30;99.90
7576;DHT22;3829;50.798;4.358;2023-02-28T08:19:36;2.40;99.90
7576;DHT22;3829;50.798;4.358;2023-02-28T08:22:02;2.50;99.90
7576;DHT22;3829;50.798;4.358;2023-02-28T08:24:27;2.50;99.90
7576;DHT22;3829;50.798;4.358;2023-02-28T08:26:53;2.60;99.90
7576;DHT22;3829;50.798;4.358;2023-02-28T08:29:18;2.60;99.90
7576;DHT22;3829;50.798;4.358;2023-02-28T08:31:44;2.70;99.90
7576;DHT22;3829;50.798;4.358;2023-02-28T08:34:12;2.70;99.90
7576;DHT22;3829;50.798;4.358;2023-02-28T08:36:38;2.80;99.90
7576;DHT22;3829;50.798;4.358;2023-02-28T08:39:04;2.70;99.90
7576;DHT22;3829;50.798;4.358;2023-02-28T08:41:30;2.80;99.90
7576;DHT22;3829;50.798;4.358;2023-02-28T08:43:55;2.60;99.90
7576;DHT22;3829;50.798;4.358;2023-02-28T08:46:23;2.80;99.90
7576;DHT22;3829;50.798;4.358;2023-02-28T08:48:52;2.80;99.90
7576;DHT22;3829;50.798;4.358;2023-02-28T08:51:19;2.70;99.90
7576;DHT22;3829;50.798;4.358;2023-02-28T08:53:55;2.70;99.90
7576;DHT22;3829;50.798;4.358;2023-02-28T08:56:21;2.70;99.90
7576;DHT22;3829;50.798;4.358;2023-02-28T08:58:48;2.80;99.90
7576;DHT22;3829;50.798;4.358;2023-02-28T09:01:19;2.90;99.90
7576;DHT22;3829;50.798;4.358;2023-02-28T09:03:47;3.00;99.90
7576;DHT22;3829;50.798;4.358;2023-02-28T09:06:14;3.00;99.90
7576;DHT22;3829;50.798;4.358;2023-02-28T09:08:40;3.00;99.90
7576;DHT22;3829;50.798;4.358;2023-02-28T09:11:07;2.90;99.90
7576;DHT22;3829;50.798;4.358;2023-02-28T09:13:33;3.00;99.90
7576;DHT22;3829;50.798;4.358;2023-02-28T09:16:00;3.00;99.90
7576;DHT22;3829;50.798;4.358;2023-02-28T09:18:26;3.00;99.90
7576;DHT22;3829;50.798;4.358;2023-02-28T09:20:52;3.20;99.90
7576;DHT22;3829;50.798;4.358;2023-02-28T09:23:18;3.30;99.90
7576;DHT22;3829;50.798;4.358;2023-02-28T09:25:47;3.30;99.90
7576;DHT22;3829;50.798;4.358;2023-02-28T09:28:13;3.40;99.90
7576;DHT22;3829;50.798;4.358;2023-02-28T09:30:41;3.50;99.90
7576;DHT22;3829;50.798;4.358;2023-02-28T09:33:07;3.50;99.90
7576;DHT22;3829;50.798;4.358;2023-02-28T09:35:32;3.60;99.90
7576;DHT22;3829;50.798;4.358;2023-02-28T09:37:58;3.50;99.90
7576;DHT22;3829;50.798;4.358;2023-02-28T09:40:25;3.50;99.90
7576;DHT22;3829;50.798;4.358;2023-02-28T09:42:53;3.60;99.90
7576;DHT22;3829;50.798;4.358;2023-02-28T09:45:36;3.70;99.90
7576;DHT22;3829;50.798;4.358;2023-02-28T09:48:23;3.60;99.90
7576;DHT22;3829;50.798;4.358;2023-02-28T09:51:00;3.60;99.90
7576;DHT22;3829;50.798;4.358;2023-02-28T09:53:29;3.60;99.90
7576;DHT22;3829;50.798;4.358;2023-02-28T09:56:03;3.70;99.90
7576;DHT22;3829;50.798;4.358;2023-02-28T10:02:07;3.70;99.90
7576;DHT22;3829;50.798;4.358;2023-02-28T10:09:59;3.90;99.90
7576;DHT22;3829;50.798;4.358;2023-02-28T10:12:27;3.90;99.90
7576;DHT22;3829;50.798;4.358;2023-02-28T10:14:55;4.00;99.90
7576;DHT22;3829;50.798;4.358;2023-02-28T10:17:32;4.10;99.90
7576;DHT22;3829;50.798;4.358;2023-02-28T10:22:36;4.20;99.90
7576;DHT22;3829;50.798;4.358;2023-02-28T10:25:23;4.00;99.90
7576;DHT22;3829;50.798;4.358;2023-02-28T10:27:52;4.00;99.90
7576;DHT22;3829;50.798;4.358;2023-02-28T10:30:19;3.90;99.90
7576;DHT22;3829;50.798;4.358;2023-02-28T10:32:50;3.90;99.90
7576;DHT22;3829;50.798;4.358;2023-02-28T10:35:19;3.80;99.90
7576;DHT22;3829;50.798;4.358;2023-02-28T10:37:48;3.70;99.90
7576;DHT22;3829;50.798;4.358;2023-02-28T10:45:20;3.90;99.90
7576;DHT22;3829;50.798;4.358;2023-02-28T10:47:56;4.00;99.90
7576;DHT22;3829;50.798;4.358;2023-02-28T10:58:56;4.30;99.90
7576;DHT22;3829;50.798;4.358;2023-02-28T11:03:58;4.50;99.90
7576;DHT22;3829;50.798;4.358;2023-02-28T11:06:42;4.50;99.90
7576;DHT22;3829;50.798;4.358;2023-02-28T11:11:50;4.80;99.90
7576;DHT22;3829;50.798;4.358;2023-02-28T11:14:25;4.80;99.90
7576;DHT22;3829;50.798;4.358;2023-02-28T11:16:52;4.70;99.90
7576;DHT22;3829;50.798;4.358;2023-02-28T11:19:26;4.80;99.90
7576;DHT22;3829;50.798;4.358;2023-02-28T11:22:01;4.70;99.90
7576;DHT22;3829;50.798;4.358;2023-02-28T11:24:41;4.60;99.90
7576;DHT22;3829;50.798;4.358;2023-02-28T11:29:49;4.40;99.90
7576;DHT22;3829;50.798;4.358;2023-02-28T11:32:22;4.50;99.90
7576;DHT22;3829;50.798;4.358;2023-02-28T11:37:37;4.60;99.90
7576;DHT22;3829;50.798;4.358;2023-02-28T11:43:02;4.60;99.90
7576;DHT22;3829;50.798;4.358;2023-02-28T11:45:55;4.70;99.90
7576;DHT22;3829;50.798;4.358;2023-02-28T11:48:32;4.60;99.90
7576;DHT22;3829;50.798;4.358;2023-02-28T11:51:33;4.70;99.90
7576;DHT22;3829;50.798;4.358;2023-02-28T11:54:26;4.70;99.90
7576;DHT22;3829;50.798;4.358;2023-02-28T11:56:58;4.50;99.90
7576;DHT22;3829;50.798;4.358;2023-02-28T12:10:52;4.90;99.90
7576;DHT22;3829;50.798;4.358;2023-02-28T12:13:26;5.00;99.90
7576;DHT22;3829;50.798;4.358;2023-02-28T12:26:44;5.00;99.90
7576;DHT22;3829;50.798;4.358;2023-02-28T12:29:30;5.20;99.90
7576;DHT22;3829;50.798;4.358;2023-02-28T12:32:07;5.10;99.90
7576;DHT22;3829;50.798;4.358;2023-02-28T12:34:44;5.10;99.90
7576;DHT22;3829;50.798;4.358;2023-02-28T12:37:21;5.10;99.90
7576;DHT22;3829;50.798;4.358;2023-02-28T12:39:54;5.20;99.90
7576;DHT22;3829;50.798;4.358;2023-02-28T12:42:30;5.10;99.90
7576;DHT22;3829;50.798;4.358;2023-02-28T12:45:00;5.20;99.90
7576;DHT22;3829;50.798;4.358;2023-02-28T12:47:27;5.20;99.90
7576;DHT22;3829;50.798;4.358;2023-02-28T12:50:04;5.10;99.90
7576;DHT22;3829;50.798;4.358;2023-02-28T12:52:34;5.20;99.90
7576;DHT22;3829;50.798;4.358;2023-02-28T12:55:13;5.10;99.90
7576;DHT22;3829;50.798;4.358;2023-02-28T13:00:34;5.00;99.90
7576;DHT22;3829;50.798;4.358;2023-02-28T13:11:29;5.10;99.90
7576;DHT22;3829;50.798;4.358;2023-02-28T13:13:58;5.30;99.90
7576;DHT22;3829;50.798;4.358;2023-02-28T13:16:24;5.40;99.90
7576;DHT22;3829;50.798;4.358;2023-02-28T13:18:50;5.60;99.90
7576;DHT22;3829;50.798;4.358;2023-02-28T13:21:28;5.60;99.90
7576;DHT22;3829;50.798;4.358;2023-02-28T13:34:28;5.10;99.90
7576;DHT22;3829;50.798;4.358;2023-02-28T13:39:52;5.30;99.90
7576;DHT22;3829;50.798;4.358;2023-02-28T13:42:32;5.40;99.90
7576;DHT22;3829;50.798;4.358;2023-02-28T13:47:44;5.30;99.90
7576;DHT22;3829;50.798;4.358;2023-02-28T13:56:09;5.40;99.90
7576;DHT22;3829;50.798;4.358;2023-02-28T13:59:06;5.50;99.90
7576;DHT22;3829;50.798;4.358;2023-02-28T14:07:41;5.40;99.90
7576;DHT22;3829;50.798;4.358;2023-02-28T14:10:24;5.50;99.90
7576;DHT22;3829;50.798;4.358;2023-02-28T14:15:46;5.50;99.90
7576;DHT22;3829;50.798;4.358;2023-02-28T14:18:38;5.30;99.90
7576;DHT22;3829;50.798;4.358;2023-02-28T14:21:14;5.40;99.90
7576;DHT22;3829;50.798;4.358;2023-02-28T14:30:03;5.50;99.90
7576;DHT22;3829;50.798;4.358;2023-02-28T14:32:54;5.40;99.90
7576;DHT22;3829;50.798;4.358;2023-02-28T14:38:25;5.80;99.90
7576;DHT22;3829;50.798;4.358;2023-02-28T14:40:55;5.90;99.90
7576;DHT22;3829;50.798;4.358;2023-02-28T14:43:27;6.30;99.90
7576;DHT22;3829;50.798;4.358;2023-02-28T14:46:02;6.50;99.90
7576;DHT22;3829;50.798;4.358;2023-02-28T14:48:29;6.30;99.90
7576;DHT22;3829;50.798;4.358;2023-02-28T14:50:58;6.70;99.90
7576;DHT22;3829;50.798;4.358;2023-02-28T14:53:27;6.60;99.90
7576;DHT22;3829;50.798;4.358;2023-02-28T14:55:54;6.30;99.90
7576;DHT22;3829;50.798;4.358;2023-02-28T14:58:28;6.70;99.90
7576;DHT22;3829;50.798;4.358;2023-02-28T15:00:56;6.90;99.90
7576;DHT22;3829;50.798;4.358;2023-02-28T15:03:29;6.90;99.90
7576;DHT22;3829;50.798;4.358;2023-02-28T15:05:58;7.20;99.90
7576;DHT22;3829;50.798;4.358;2023-02-28T15:08:24;7.10;99.90
7576;DHT22;3829;50.798;4.358;2023-02-28T15:10:56;7.00;99.90
7576;DHT22;3829;50.798;4.358;2023-02-28T15:13:23;6.90;99.90
7576;DHT22;3829;50.798;4.358;2023-02-28T15:15:56;6.30;99.90
7576;DHT22;3829;50.798;4.358;2023-02-28T15:18:24;6.10;99.90
7576;DHT22;3829;50.798;4.358;2023-02-28T15:20:51;5.60;99.90
7576;DHT22;3829;50.798;4.358;2023-02-28T15:23:20;5.40;99.90
7576;DHT22;3829;50.798;4.358;2023-02-28T15:25:47;5.40;99.90
7576;DHT22;3829;50.798;4.358;2023-02-28T15:28:16;5.30;99.90
7576;DHT22;3829;50.798;4.358;2023-02-28T15:30:52;5.30;99.90
7576;DHT22;3829;50.798;4.358;2023-02-28T15:33:21;5.40;99.90
7576;DHT22;3829;50.798;4.358;2023-02-28T15:35:47;5.30;99.90
7576;DHT22;3829;50.798;4.358;2023-02-28T15:38:25;5.20;99.90
7576;DHT22;3829;50.798;4.358;2023-02-28T15:40:56;5.10;99.90
7576;DHT22;3829;50.798;4.358;2023-02-28T15:43:32;5.10;99.90
7576;DHT22;3829;50.798;4.358;2023-02-28T15:48:33;5.00;99.90
7576;DHT22;3829;50.798;4.358;2023-02-28T15:51:15;5.00;99.90
7576;DHT22;3829;50.798;4.358;2023-02-28T15:53:54;5.00;99.90
7576;DHT22;3829;50.798;4.358;2023-02-28T15:56:25;5.00;99.90
7576;DHT22;3829;50.798;4.358;2023-02-28T15:59:06;5.00;99.90
7576;DHT22;3829;50.798;4.358;2023-02-28T16:01:34;4.90;99.90
7576;DHT22;3829;50.798;4.358;2023-02-28T16:04:14;5.00;99.90
7576;DHT22;3829;50.798;4.358;2023-02-28T16:09:18;5.00;99.90
7576;DHT22;3829;50.798;4.358;2023-02-28T16:11:47;4.80;99.90
7576;DHT22;3829;50.798;4.358;2023-02-28T16:14:19;4.80;99.90
7576;DHT22;3829;50.798;4.358;2023-02-28T16:16:48;4.70;99.90
7576;DHT22;3829;50.798;4.358;2023-02-28T16:19:14;4.70;99.90
7576;DHT22;3829;50.798;4.358;2023-02-28T16:21:40;4.70;99.90
7576;DHT22;3829;50.798;4.358;2023-02-28T16:24:06;4.60;99.90
7576;DHT22;3829;50.798;4.358;2023-02-28T16:26:32;4.60;99.90
7576;DHT22;3829;50.798;4.358;2023-02-28T16:29:00;4.60;99.90
7576;DHT22;3829;50.798;4.358;2023-02-28T16:31:27;4.50;99.90
7576;DHT22;3829;50.798;4.358;2023-02-28T16:33:53;4.50;99.90
7576;DHT22;3829;50.798;4.358;2023-02-28T16:36:21;4.50;99.90
7576;DHT22;3829;50.798;4.358;2023-02-28T16:38:48;4.40;99.90
7576;DHT22;3829;50.798;4.358;2023-02-28T16:41:18;4.40;99.90
7576;DHT22;3829;50.798;4.358;2023-02-28T16:43:50;4.30;99.90
7576;DHT22;3829;50.798;4.358;2023-02-28T16:46:17;4.40;99.90
7576;DHT22;3829;50.798;4.358;2023-02-28T16:48:46;4.30;99.90
7576;DHT22;3829;50.798;4.358;2023-02-28T16:51:15;4.30;99.90
7576;DHT22;3829;50.798;4.358;2023-02-28T16:53:42;4.30;99.90
7576;DHT22;3829;50.798;4.358;2023-02-28T16:56:34;4.20;99.90
7576;DHT22;3829;50.798;4.358;2023-02-28T16:59:01;4.20;99.90
7576;DHT22;3829;50.798;4.358;2023-02-28T17:01:27;4.20;99.90
7576;DHT22;3829;50.798;4.358;2023-02-28T17:03:54;4.10;99.90
7576;DHT22;3829;50.798;4.358;2023-02-28T17:06:28;4.10;99.90
7576;DHT22;3829;50.798;4.358;2023-02-28T17:08:54;4.00;99.90
7576;DHT22;3829;50.798;4.358;2023-02-28T17:11:21;4.00;99.90
7576;DHT22;3829;50.798;4.358;2023-02-28T17:13:47;3.90;99.90
7576;DHT22;3829;50.798;4.358;2023-02-28T17:16:32;3.90;99.90
7576;DHT22;3829;50.798;4.358;2023-02-28T17:19:00;3.90;99.90
7576;DHT22;3829;50.798;4.358;2023-02-28T17:21:27;3.90;99.90
7576;DHT22;3829;50.798;4.358;2023-02-28T17:23:53;3.80;99.90
7576;DHT22;3829;50.798;4.358;2023-02-28T17:26:20;3.80;99.90
7576;DHT22;3829;50.798;4.358;2023-02-28T17:28:47;3.80;99.90
7576;DHT22;3829;50.798;4.358;2023-02-28T17:31:13;3.70;99.90
7576;DHT22;3829;50.798;4.358;2023-02-28T17:33:39;3.70;99.90
7576;DHT22;3829;50.798;4.358;2023-02-28T17:36:05;3.70;99.90
7576;DHT22;3829;50.798;4.358;2023-02-28T17:38:31;3.70;99.90
7576;DHT22;3829;50.798;4.358;2023-02-28T17:40:56;3.60;99.90
7576;DHT22;3829;50.798;4.358;2023-02-28T17:43:26;3.60;99.90
7576;DHT22;3829;50.798;4.358;2023-02-28T17:45:52;3.60;99.90
7576;DHT22;3829;50.798;4.358;2023-02-28T17:48:17;3.50;99.90
7576;DHT22;3829;50.798;4.358;2023-02-28T17:50:43;3.50;99.90
7576;DHT22;3829;50.798;4.358;2023-02-28T17:53:09;3.50;99.90
7576;DHT22;3829;50.798;4.358;2023-02-28T17:55:35;3.40;99.90
7576;DHT22;3829;50.798;4.358;2023-02-28T17:58:02;3.40;99.90
7576;DHT22;3829;50.798;4.358;2023-02-28T18:00:28;3.30;99.90
7576;DHT22;3829;50.798;4.358;2023-02-28T18:02:54;3.40;99.90
7576;DHT22;3829;50.798;4.358;2023-02-28T18:05:20;3.40;99.90
7576;DHT22;3829;50.798;4.358;2023-02-28T18:07:46;3.40;99.90
7576;DHT22;3829;50.798;4.358;2023-02-28T18:10:18;3.30;99.90
7576;DHT22;3829;50.798;4.358;2023-02-28T18:12:48;3.30;99.90
7576;DHT22;3829;50.798;4.358;2023-02-28T18:15:15;3.30;99.90
7576;DHT22;3829;50.798;4.358;2023-02-28T18:17:41;3.20;99.90
7576;DHT22;3829;50.798;4.358;2023-02-28T18:20:09;3.20;99.90
7576;DHT22;3829;50.798;4.358;2023-02-28T18:22:35;3.10;99.90
7576;DHT22;3829;50.798;4.358;2023-02-28T18:25:05;3.00;99.90
7576;DHT22;3829;50.798;4.358;2023-02-28T18:27:31;3.00;99.90
7576;DHT22;3829;50.798;4.358;2023-02-28T18:29:56;3.00;99.90
7576;DHT22;3829;50.798;4.358;2023-02-28T18:32:22;3.00;99.90
7576;DHT22;3829;50.798;4.358;2023-02-28T18:34:47;3.00;99.90
7576;DHT22;3829;50.798;4.358;2023-02-28T18:37:13;2.90;99.90
7576;DHT22;3829;50.798;4.358;2023-02-28T18:39:40;3.00;99.90
7576;DHT22;3829;50.798;4.358;2023-02-28T18:42:06;3.10;99.90
7576;DHT22;3829;50.798;4.358;2023-02-28T18:44:31;3.00;99.90
7576;DHT22;3829;50.798;4.358;2023-02-28T18:46:57;2.90;99.90
7576;DHT22;3829;50.798;4.358;2023-02-28T18:49:22;2.90;99.90
7576;DHT22;3829;50.798;4.358;2023-02-28T18:51:48;2.90;99.90
7576;DHT22;3829;50.798;4.358;2023-02-28T18:54:15;2.90;99.90
7576;DHT22;3829;50.798;4.358;2023-02-28T18:56:41;2.90;99.90
7576;DHT22;3829;50.798;4.358;2023-02-28T18:59:06;2.90;99.90
7576;DHT22;3829;50.798;4.358;2023-02-28T19:01:32;2.80;99.90
7576;DHT22;3829;50.798;4.358;2023-02-28T19:03:59;2.80;99.90